sensor_id;sensor_type;location;lat;lon;timestamp;pressure;altitude;pressure_sealevel;temperature
30765;BMP180;494;48.744;10.106;2022-09-09T00:00:47;95533.00;;;14.80
30765;BMP180;494;48.744;10.106;2022-09-09T00:03:23;94877.00;;;14.60
30765;BMP180;494;48.744;10.106;2022-09-09T00:06:05;95408.00;;;14.80
30765;BMP180;494;48.744;10.106;2022-09-09T00:08:46;95092.00;;;14.10
30765;BMP180;494;48.744;10.106;2022-09-09T00:11:26;95464.00;;;14.80
30765;BMP180;494;48.744;10.106;2022-09-09T00:14:03;95400.00;;;14.80
30765;BMP180;494;48.744;10.106;2022-09-09T00:16:42;95164.00;;;13.70
30765;BMP180;494;48.744;10.106;2022-09-09T00:19:22;95358.00;;;13.90
30765;BMP180;494;48.744;10.106;2022-09-09T00:22:07;95218.00;;;14.80
30765;BMP180;494;48.744;10.106;2022-09-09T00:24:46;95295.00;;;13.60
30765;BMP180;494;48.744;10.106;2022-09-09T00:27:25;95259.00;;;13.60
30765;BMP180;494;48.744;10.106;2022-09-09T00:30:12;95265.00;;;14.20
30765;BMP180;494;48.744;10.106;2022-09-09T00:32:41;95316.00;;;13.90
30765;BMP180;494;48.744;10.106;2022-09-09T00:35:21;95139.00;;;14.10
30765;BMP180;494;48.744;10.106;2022-09-09T00:37:56;95529.00;;;14.30
30765;BMP180;494;48.744;10.106;2022-09-09T00:40:38;95459.00;;;14.80
30765;BMP180;494;48.744;10.106;2022-09-09T00:43:24;95208.00;;;13.20
30765;BMP180;494;48.744;10.106;2022-09-09T00:46:25;95355.00;;;14.40
30765;BMP180;494;48.744;10.106;2022-09-09T00:49:09;95508.00;;;13.50
30765;BMP180;494;48.744;10.106;2022-09-09T00:51:59;94713.00;;;14.70
30765;BMP180;494;48.744;10.106;2022-09-09T00:54:48;95410.00;;;14.40
30765;BMP180;494;48.744;10.106;2022-09-09T00:57:27;95513.00;;;14.60
30765;BMP180;494;48.744;10.106;2022-09-09T01:00:18;95300.00;;;14.60
30765;BMP180;494;48.744;10.106;2022-09-09T01:03:01;95183.00;;;13.20
30765;BMP180;494;48.744;10.106;2022-09-09T01:05:40;94963.00;;;14.50
30765;BMP180;494;48.744;10.106;2022-09-09T01:08:40;95338.00;;;13.00
30765;BMP180;494;48.744;10.106;2022-09-09T01:11:20;94851.00;;;14.60
30765;BMP180;494;48.744;10.106;2022-09-09T01:14:05;95345.00;;;14.10
30765;BMP180;494;48.744;10.106;2022-09-09T01:16:38;95315.00;;;14.40
30765;BMP180;494;48.744;10.106;2022-09-09T01:19:19;95544.00;;;14.30
30765;BMP180;494;48.744;10.106;2022-09-09T01:22:03;94971.00;;;14.30
30765;BMP180;494;48.744;10.106;2022-09-09T01:24:40;94857.00;;;14.40
30765;BMP180;494;48.744;10.106;2022-09-09T01:27:14;95463.00;;;14.10
30765;BMP180;494;48.744;10.106;2022-09-09T01:29:44;95276.00;;;14.30
30765;BMP180;494;48.744;10.106;2022-09-09T01:32:41;95462.00;;;14.30
30765;BMP180;494;48.744;10.106;2022-09-09T01:35:18;95294.00;;;14.30
30765;BMP180;494;48.744;10.106;2022-09-09T01:37:48;95197.00;;;13.80
30765;BMP180;494;48.744;10.106;2022-09-09T01:40:17;94893.00;;;14.30
30765;BMP180;494;48.744;10.106;2022-09-09T01:42:47;95373.00;;;14.30
30765;BMP180;494;48.744;10.106;2022-09-09T01:45:16;95443.00;;;14.20
30765;BMP180;494;48.744;10.106;2022-09-09T01:47:46;95226.00;;;13.50
30765;BMP180;494;48.744;10.106;2022-09-09T01:50:16;95448.00;;;14.30
30765;BMP180;494;48.744;10.106;2022-09-09T01:52:49;95249.00;;;14.00
30765;BMP180;494;48.744;10.106;2022-09-09T01:55:28;95141.00;;;14.40
30765;BMP180;494;48.744;10.106;2022-09-09T01:58:15;94883.00;;;14.30
30765;BMP180;494;48.744;10.106;2022-09-09T02:00:58;94547.00;;;13.50
30765;BMP180;494;48.744;10.106;2022-09-09T02:03:32;95447.00;;;13.10
30765;BMP180;494;48.744;10.106;2022-09-09T02:06:17;95191.00;;;13.40
30765;BMP180;494;48.744;10.106;2022-09-09T02:08:53;95115.00;;;13.10
30765;BMP180;494;48.744;10.106;2022-09-09T02:11:26;95257.00;;;13.80
30765;BMP180;494;48.744;10.106;2022-09-09T02:14:01;95486.00;;;13.80
30765;BMP180;494;48.744;10.106;2022-09-09T02:16:37;95174.00;;;14.30
30765;BMP180;494;48.744;10.106;2022-09-09T02:19:13;95054.00;;;13.10
30765;BMP180;494;48.744;10.106;2022-09-09T02:21:46;95178.00;;;14.20
30765;BMP180;494;48.744;10.106;2022-09-09T02:24:16;95463.00;;;13.50
30765;BMP180;494;48.744;10.106;2022-09-09T02:26:49;95545.00;;;14.20
30765;BMP180;494;48.744;10.106;2022-09-09T02:29:26;95311.00;;;12.40
30765;BMP180;494;48.744;10.106;2022-09-09T02:31:59;95187.00;;;14.10
30765;BMP180;494;48.744;10.106;2022-09-09T02:34:34;95186.00;;;14.10
30765;BMP180;494;48.744;10.106;2022-09-09T02:37:06;95483.00;;;13.40
30765;BMP180;494;48.744;10.106;2022-09-09T02:39:36;95329.00;;;14.20
30765;BMP180;494;48.744;10.106;2022-09-09T02:42:05;95078.00;;;14.20
30765;BMP180;494;48.744;10.106;2022-09-09T02:44:36;95439.00;;;14.00
30765;BMP180;494;48.744;10.106;2022-09-09T02:47:25;95430.00;;;13.70
30765;BMP180;494;48.744;10.106;2022-09-09T02:50:10;95383.00;;;14.10
30765;BMP180;494;48.744;10.106;2022-09-09T02:52:55;95370.00;;;13.70
30765;BMP180;494;48.744;10.106;2022-09-09T02:55:38;95270.00;;;14.10
30765;BMP180;494;48.744;10.106;2022-09-09T02:58:12;95492.00;;;14.00
30765;BMP180;494;48.744;10.106;2022-09-09T03:00:48;95334.00;;;14.00
30765;BMP180;494;48.744;10.106;2022-09-09T03:03:19;95265.00;;;13.30
30765;BMP180;494;48.744;10.106;2022-09-09T03:05:49;94946.00;;;14.10
30765;BMP180;494;48.744;10.106;2022-09-09T03:08:18;95350.00;;;13.70
30765;BMP180;494;48.744;10.106;2022-09-09T03:10:46;95208.00;;;14.10
30765;BMP180;494;48.744;10.106;2022-09-09T03:13:15;95216.00;;;13.90
30765;BMP180;494;48.744;10.106;2022-09-09T03:15:48;95208.00;;;14.20
30765;BMP180;494;48.744;10.106;2022-09-09T03:18:16;95237.00;;;14.10
30765;BMP180;494;48.744;10.106;2022-09-09T03:20:47;95364.00;;;13.40
30765;BMP180;494;48.744;10.106;2022-09-09T03:23:16;95532.00;;;12.50
30765;BMP180;494;48.744;10.106;2022-09-09T03:25:48;95221.00;;;12.90
30765;BMP180;494;48.744;10.106;2022-09-09T03:28:17;95487.00;;;13.40
30765;BMP180;494;48.744;10.106;2022-09-09T03:30:47;95385.00;;;13.60
30765;BMP180;494;48.744;10.106;2022-09-09T03:33:16;95194.00;;;12.80
30765;BMP180;494;48.744;10.106;2022-09-09T03:35:46;95422.00;;;14.20
30765;BMP180;494;48.744;10.106;2022-09-09T03:38:15;95478.00;;;13.90
30765;BMP180;494;48.744;10.106;2022-09-09T03:40:50;95232.00;;;13.00
30765;BMP180;494;48.744;10.106;2022-09-09T03:43:23;95326.00;;;14.00
30765;BMP180;494;48.744;10.106;2022-09-09T03:45:53;95439.00;;;13.90
30765;BMP180;494;48.744;10.106;2022-09-09T03:48:25;95226.00;;;13.50
30765;BMP180;494;48.744;10.106;2022-09-09T03:50:55;95407.00;;;14.00
30765;BMP180;494;48.744;10.106;2022-09-09T03:53:25;95230.00;;;14.00
30765;BMP180;494;48.744;10.106;2022-09-09T03:55:56;95462.00;;;13.80
30765;BMP180;494;48.744;10.106;2022-09-09T03:58:28;95421.00;;;13.70
30765;BMP180;494;48.744;10.106;2022-09-09T04:01:02;95426.00;;;14.00
30765;BMP180;494;48.744;10.106;2022-09-09T04:03:31;95434.00;;;14.10
30765;BMP180;494;48.744;10.106;2022-09-09T04:06:03;95434.00;;;14.20
30765;BMP180;494;48.744;10.106;2022-09-09T04:08:31;95319.00;;;14.10
30765;BMP180;494;48.744;10.106;2022-09-09T04:11:01;95350.00;;;14.20
30765;BMP180;494;48.744;10.106;2022-09-09T04:13:34;95548.00;;;12.50
30765;BMP180;494;48.744;10.106;2022-09-09T04:16:07;95514.00;;;14.20
30765;BMP180;494;48.744;10.106;2022-09-09T04:18:36;95357.00;;;13.80
30765;BMP180;494;48.744;10.106;2022-09-09T04:21:05;95237.00;;;13.70
30765;BMP180;494;48.744;10.106;2022-09-09T04:23:35;95511.00;;;13.00
30765;BMP180;494;48.744;10.106;2022-09-09T04:26:04;95381.00;;;14.40
30765;BMP180;494;48.744;10.106;2022-09-09T04:28:36;95277.00;;;14.40
30765;BMP180;494;48.744;10.106;2022-09-09T04:31:09;95438.00;;;14.30
30765;BMP180;494;48.744;10.106;2022-09-09T04:33:38;95377.00;;;14.40
30765;BMP180;494;48.744;10.106;2022-09-09T04:36:07;95445.00;;;14.40
30765;BMP180;494;48.744;10.106;2022-09-09T04:38:36;95335.00;;;14.00
30765;BMP180;494;48.744;10.106;2022-09-09T04:41:05;95444.00;;;14.30
30765;BMP180;494;48.744;10.106;2022-09-09T04:43:34;94895.00;;;13.30
30765;BMP180;494;48.744;10.106;2022-09-09T04:46:03;95341.00;;;14.10
30765;BMP180;494;48.744;10.106;2022-09-09T04:48:34;95500.00;;;13.90
30765;BMP180;494;48.744;10.106;2022-09-09T04:51:05;95469.00;;;13.60
30765;BMP180;494;48.744;10.106;2022-09-09T04:53:34;95094.00;;;13.30
30765;BMP180;494;48.744;10.106;2022-09-09T04:56:05;95219.00;;;13.80
30765;BMP180;494;48.744;10.106;2022-09-09T04:58:34;94491.00;;;13.90
30765;BMP180;494;48.744;10.106;2022-09-09T05:01:06;95323.00;;;13.20
30765;BMP180;494;48.744;10.106;2022-09-09T05:03:36;95191.00;;;12.90
30765;BMP180;494;48.744;10.106;2022-09-09T05:06:07;95458.00;;;13.40
30765;BMP180;494;48.744;10.106;2022-09-09T05:08:38;95574.00;;;10.10
30765;BMP180;494;48.744;10.106;2022-09-09T05:11:15;95454.00;;;13.40
30765;BMP180;494;48.744;10.106;2022-09-09T05:13:44;95380.00;;;12.50
30765;BMP180;494;48.744;10.106;2022-09-09T05:16:14;95482.00;;;11.60
30765;BMP180;494;48.744;10.106;2022-09-09T05:18:44;94877.00;;;12.10
30765;BMP180;494;48.744;10.106;2022-09-09T05:21:19;95453.00;;;12.50
30765;BMP180;494;48.744;10.106;2022-09-09T05:23:48;95358.00;;;13.60
30765;BMP180;494;48.744;10.106;2022-09-09T05:26:19;95496.00;;;13.80
30765;BMP180;494;48.744;10.106;2022-09-09T05:28:48;95187.00;;;13.10
30765;BMP180;494;48.744;10.106;2022-09-09T05:31:18;95533.00;;;14.00
30765;BMP180;494;48.744;10.106;2022-09-09T05:33:48;95458.00;;;13.80
30765;BMP180;494;48.744;10.106;2022-09-09T05:36:19;95355.00;;;13.60
30765;BMP180;494;48.744;10.106;2022-09-09T05:38:49;95330.00;;;13.30
30765;BMP180;494;48.744;10.106;2022-09-09T05:41:17;95392.00;;;13.50
30765;BMP180;494;48.744;10.106;2022-09-09T05:43:47;95198.00;;;13.70
30765;BMP180;494;48.744;10.106;2022-09-09T05:46:18;95504.00;;;13.90
30765;BMP180;494;48.744;10.106;2022-09-09T05:48:50;95468.00;;;13.70
30765;BMP180;494;48.744;10.106;2022-09-09T05:51:21;95519.00;;;14.20
30765;BMP180;494;48.744;10.106;2022-09-09T05:53:51;95503.00;;;12.10
30765;BMP180;494;48.744;10.106;2022-09-09T05:56:24;95492.00;;;14.30
30765;BMP180;494;48.744;10.106;2022-09-09T05:58:54;95470.00;;;14.40
30765;BMP180;494;48.744;10.106;2022-09-09T06:01:25;95506.00;;;14.50
30765;BMP180;494;48.744;10.106;2022-09-09T06:03:56;95024.00;;;13.60
30765;BMP180;494;48.744;10.106;2022-09-09T06:06:26;95533.00;;;13.40
30765;BMP180;494;48.744;10.106;2022-09-09T06:08:57;95547.00;;;13.90
30765;BMP180;494;48.744;10.106;2022-09-09T06:11:29;95505.00;;;13.90
30765;BMP180;494;48.744;10.106;2022-09-09T06:13:59;95498.00;;;14.90
30765;BMP180;494;48.744;10.106;2022-09-09T06:16:29;95459.00;;;14.20
30765;BMP180;494;48.744;10.106;2022-09-09T06:19:02;95473.00;;;14.70
30765;BMP180;494;48.744;10.106;2022-09-09T06:21:32;94926.00;;;14.80
30765;BMP180;494;48.744;10.106;2022-09-09T06:24:03;95331.00;;;15.20
30765;BMP180;494;48.744;10.106;2022-09-09T06:26:34;95446.00;;;15.40
30765;BMP180;494;48.744;10.106;2022-09-09T06:29:04;95367.00;;;15.30
30765;BMP180;494;48.744;10.106;2022-09-09T06:31:34;95296.00;;;16.00
30765;BMP180;494;48.744;10.106;2022-09-09T06:34:07;95448.00;;;15.20
30765;BMP180;494;48.744;10.106;2022-09-09T06:36:38;95490.00;;;15.20
30765;BMP180;494;48.744;10.106;2022-09-09T06:39:07;95442.00;;;15.50
30765;BMP180;494;48.744;10.106;2022-09-09T06:41:42;95396.00;;;15.50
30765;BMP180;494;48.744;10.106;2022-09-09T06:44:10;95244.00;;;15.10
30765;BMP180;494;48.744;10.106;2022-09-09T06:46:39;95454.00;;;16.40
30765;BMP180;494;48.744;10.106;2022-09-09T06:49:10;95453.00;;;16.40
30765;BMP180;494;48.744;10.106;2022-09-09T06:51:39;95168.00;;;16.20
30765;BMP180;494;48.744;10.106;2022-09-09T06:54:11;95452.00;;;16.40
30765;BMP180;494;48.744;10.106;2022-09-09T06:56:41;95491.00;;;16.50
30765;BMP180;494;48.744;10.106;2022-09-09T06:59:11;95491.00;;;16.40
30765;BMP180;494;48.744;10.106;2022-09-09T07:01:42;95477.00;;;16.20
30765;BMP180;494;48.744;10.106;2022-09-09T07:04:13;95454.00;;;16.70
30765;BMP180;494;48.744;10.106;2022-09-09T07:06:44;95487.00;;;17.00
30765;BMP180;494;48.744;10.106;2022-09-09T07:09:15;95448.00;;;17.20
30765;BMP180;494;48.744;10.106;2022-09-09T07:11:46;95494.00;;;17.30
30765;BMP180;494;48.744;10.106;2022-09-09T07:14:16;95355.00;;;17.60
30765;BMP180;494;48.744;10.106;2022-09-09T07:16:45;95448.00;;;18.00
30765;BMP180;494;48.744;10.106;2022-09-09T07:19:15;95448.00;;;18.60
30765;BMP180;494;48.744;10.106;2022-09-09T07:21:44;95243.00;;;19.00
30765;BMP180;494;48.744;10.106;2022-09-09T07:24:13;95446.00;;;19.20
30765;BMP180;494;48.744;10.106;2022-09-09T07:26:42;95014.00;;;19.10
30765;BMP180;494;48.744;10.106;2022-09-09T07:29:12;95301.00;;;19.20
30765;BMP180;494;48.744;10.106;2022-09-09T07:31:46;95421.00;;;19.90
30765;BMP180;494;48.744;10.106;2022-09-09T07:34:17;95450.00;;;20.30
30765;BMP180;494;48.744;10.106;2022-09-09T07:36:45;95060.00;;;20.60
30765;BMP180;494;48.744;10.106;2022-09-09T07:39:14;95425.00;;;20.50
30765;BMP180;494;48.744;10.106;2022-09-09T07:41:47;95449.00;;;20.70
30765;BMP180;494;48.744;10.106;2022-09-09T07:44:18;95503.00;;;20.10
30765;BMP180;494;48.744;10.106;2022-09-09T07:46:49;95440.00;;;21.40
30765;BMP180;494;48.744;10.106;2022-09-09T07:49:19;95353.00;;;21.70
30765;BMP180;494;48.744;10.106;2022-09-09T07:51:57;95264.00;;;21.90
30765;BMP180;494;48.744;10.106;2022-09-09T07:54:30;95261.00;;;22.40
30765;BMP180;494;48.744;10.106;2022-09-09T07:56:59;95336.00;;;21.80
30765;BMP180;494;48.744;10.106;2022-09-09T07:59:27;95470.00;;;22.50
30765;BMP180;494;48.744;10.106;2022-09-09T08:02:00;94958.00;;;22.20
30765;BMP180;494;48.744;10.106;2022-09-09T08:04:30;95449.00;;;23.00
30765;BMP180;494;48.744;10.106;2022-09-09T08:07:01;95450.00;;;23.40
30765;BMP180;494;48.744;10.106;2022-09-09T08:09:30;95269.00;;;23.40
30765;BMP180;494;48.744;10.106;2022-09-09T08:12:01;95429.00;;;23.70
30765;BMP180;494;48.744;10.106;2022-09-09T08:14:29;95252.00;;;22.50
30765;BMP180;494;48.744;10.106;2022-09-09T08:16:58;95323.00;;;23.20
30765;BMP180;494;48.744;10.106;2022-09-09T08:19:26;95473.00;;;22.90
30765;BMP180;494;48.744;10.106;2022-09-09T08:21:58;95473.00;;;22.90
30765;BMP180;494;48.744;10.106;2022-09-09T08:24:26;95471.00;;;23.00
30765;BMP180;494;48.744;10.106;2022-09-09T08:26:55;95479.00;;;23.20
30765;BMP180;494;48.744;10.106;2022-09-09T08:29:24;95475.00;;;23.40
30765;BMP180;494;48.744;10.106;2022-09-09T08:31:54;95472.00;;;23.30
30765;BMP180;494;48.744;10.106;2022-09-09T08:34:25;95497.00;;;23.60
30765;BMP180;494;48.744;10.106;2022-09-09T08:36:54;95489.00;;;23.40
30765;BMP180;494;48.744;10.106;2022-09-09T08:39:24;95106.00;;;23.60
30765;BMP180;494;48.744;10.106;2022-09-09T08:42:30;95475.00;;;23.80
30765;BMP180;494;48.744;10.106;2022-09-09T08:45:25;95483.00;;;23.70
30765;BMP180;494;48.744;10.106;2022-09-09T08:48:13;95418.00;;;23.20
30765;BMP180;494;48.744;10.106;2022-09-09T08:50:49;95494.00;;;23.70
30765;BMP180;494;48.744;10.106;2022-09-09T08:53:23;95387.00;;;23.90
30765;BMP180;494;48.744;10.106;2022-09-09T08:55:56;95499.00;;;23.80
30765;BMP180;494;48.744;10.106;2022-09-09T08:58:29;95492.00;;;23.80
30765;BMP180;494;48.744;10.106;2022-09-09T09:01:17;95311.00;;;23.80
30765;BMP180;494;48.744;10.106;2022-09-09T09:04:00;95494.00;;;23.90
30765;BMP180;494;48.744;10.106;2022-09-09T09:06:45;95496.00;;;24.00
30765;BMP180;494;48.744;10.106;2022-09-09T09:09:23;95567.00;;;23.60
30765;BMP180;494;48.744;10.106;2022-09-09T09:11:57;95502.00;;;23.10
30765;BMP180;494;48.744;10.106;2022-09-09T09:14:29;95497.00;;;23.20
30765;BMP180;494;48.744;10.106;2022-09-09T09:17:04;95499.00;;;23.30
30765;BMP180;494;48.744;10.106;2022-09-09T09:19:35;95500.00;;;23.20
30765;BMP180;494;48.744;10.106;2022-09-09T09:22:16;95440.00;;;23.50
30765;BMP180;494;48.744;10.106;2022-09-09T09:24:52;95352.00;;;23.70
30765;BMP180;494;48.744;10.106;2022-09-09T09:27:33;95489.00;;;24.20
30765;BMP180;494;48.744;10.106;2022-09-09T09:30:15;95393.00;;;24.40
30765;BMP180;494;48.744;10.106;2022-09-09T09:33:05;95514.00;;;24.80
30765;BMP180;494;48.744;10.106;2022-09-09T09:35:37;95305.00;;;24.90
30765;BMP180;494;48.744;10.106;2022-09-09T09:38:17;95546.00;;;25.70
30765;BMP180;494;48.744;10.106;2022-09-09T09:41:07;95189.00;;;25.60
30765;BMP180;494;48.744;10.106;2022-09-09T09:43:40;95401.00;;;26.00
30765;BMP180;494;48.744;10.106;2022-09-09T09:46:21;95488.00;;;26.30
30765;BMP180;494;48.744;10.106;2022-09-09T09:48:57;95377.00;;;26.20
30765;BMP180;494;48.744;10.106;2022-09-09T09:51:27;95350.00;;;25.90
30765;BMP180;494;48.744;10.106;2022-09-09T09:54:16;95491.00;;;25.70
30765;BMP180;494;48.744;10.106;2022-09-09T09:56:46;95293.00;;;25.50
30765;BMP180;494;48.744;10.106;2022-09-09T09:59:32;95315.00;;;25.80
30765;BMP180;494;48.744;10.106;2022-09-09T10:02:18;95489.00;;;25.30
30765;BMP180;494;48.744;10.106;2022-09-09T10:04:47;95341.00;;;24.60
30765;BMP180;494;48.744;10.106;2022-09-09T10:07:20;95491.00;;;24.40
30765;BMP180;494;48.744;10.106;2022-09-09T10:09:54;95418.00;;;23.90
30765;BMP180;494;48.744;10.106;2022-09-09T10:12:39;95371.00;;;24.90
30765;BMP180;494;48.744;10.106;2022-09-09T10:15:32;95523.00;;;24.10
30765;BMP180;494;48.744;10.106;2022-09-09T10:18:20;95493.00;;;25.10
30765;BMP180;494;48.744;10.106;2022-09-09T10:20:59;95382.00;;;24.90
30765;BMP180;494;48.744;10.106;2022-09-09T10:23:50;95388.00;;;24.90
30765;BMP180;494;48.744;10.106;2022-09-09T10:26:38;95481.00;;;25.00
30765;BMP180;494;48.744;10.106;2022-09-09T10:29:33;95299.00;;;25.00
30765;BMP180;494;48.744;10.106;2022-09-09T10:32:30;95337.00;;;23.90
30765;BMP180;494;48.744;10.106;2022-09-09T10:35:12;95474.00;;;24.90
30765;BMP180;494;48.744;10.106;2022-09-09T10:41:16;95498.00;;;25.10
30765;BMP180;494;48.744;10.106;2022-09-09T10:44:20;95468.00;;;26.40
30765;BMP180;494;48.744;10.106;2022-09-09T10:47:21;95464.00;;;26.10
30765;BMP180;494;48.744;10.106;2022-09-09T10:50:27;95075.00;;;27.50
30765;BMP180;494;48.744;10.106;2022-09-09T10:53:33;95274.00;;;28.30
30765;BMP180;494;48.744;10.106;2022-09-09T10:56:08;95149.00;;;28.00
30765;BMP180;494;48.744;10.106;2022-09-09T10:58:46;95343.00;;;28.80
30765;BMP180;494;48.744;10.106;2022-09-09T11:01:22;95503.00;;;28.10
30765;BMP180;494;48.744;10.106;2022-09-09T11:04:00;95034.00;;;26.50
30765;BMP180;494;48.744;10.106;2022-09-09T11:06:38;95463.00;;;26.30
30765;BMP180;494;48.744;10.106;2022-09-09T11:09:15;95472.00;;;25.80
30765;BMP180;494;48.744;10.106;2022-09-09T11:11:53;95496.00;;;25.30
30765;BMP180;494;48.744;10.106;2022-09-09T11:14:29;95277.00;;;25.20
30765;BMP180;494;48.744;10.106;2022-09-09T11:17:11;95474.00;;;24.80
30765;BMP180;494;48.744;10.106;2022-09-09T11:19:43;95405.00;;;25.30
30765;BMP180;494;48.744;10.106;2022-09-09T11:22:24;95345.00;;;25.40
30765;BMP180;494;48.744;10.106;2022-09-09T11:25:04;95463.00;;;24.50
30765;BMP180;494;48.744;10.106;2022-09-09T11:27:43;95327.00;;;25.30
30765;BMP180;494;48.744;10.106;2022-09-09T11:30:20;95048.00;;;26.20
30765;BMP180;494;48.744;10.106;2022-09-09T11:33:55;95450.00;;;27.10
30765;BMP180;494;48.744;10.106;2022-09-09T11:36:56;95499.00;;;26.40
30765;BMP180;494;48.744;10.106;2022-09-09T11:40:08;95468.00;;;26.30
30765;BMP180;494;48.744;10.106;2022-09-09T11:42:38;95301.00;;;26.00
30765;BMP180;494;48.744;10.106;2022-09-09T11:45:20;95504.00;;;25.30
30765;BMP180;494;48.744;10.106;2022-09-09T11:47:55;95309.00;;;24.40
30765;BMP180;494;48.744;10.106;2022-09-09T11:50:34;95488.00;;;23.80
30765;BMP180;494;48.744;10.106;2022-09-09T11:53:19;95490.00;;;23.60
30765;BMP180;494;48.744;10.106;2022-09-09T11:56:12;95483.00;;;23.30
30765;BMP180;494;48.744;10.106;2022-09-09T11:58:54;95482.00;;;23.60
30765;BMP180;494;48.744;10.106;2022-09-09T12:01:42;95282.00;;;22.60
30765;BMP180;494;48.744;10.106;2022-09-09T12:04:33;95478.00;;;23.40
30765;BMP180;494;48.744;10.106;2022-09-09T12:07:23;95471.00;;;23.40
30765;BMP180;494;48.744;10.106;2022-09-09T12:10:02;95490.00;;;23.20
30765;BMP180;494;48.744;10.106;2022-09-09T12:12:34;95300.00;;;23.00
30765;BMP180;494;48.744;10.106;2022-09-09T12:15:26;95256.00;;;22.90
30765;BMP180;494;48.744;10.106;2022-09-09T12:17:58;95445.00;;;22.60
30765;BMP180;494;48.744;10.106;2022-09-09T12:20:35;95278.00;;;22.40
30765;BMP180;494;48.744;10.106;2022-09-09T12:23:30;95299.00;;;23.00
30765;BMP180;494;48.744;10.106;2022-09-09T12:26:29;95490.00;;;23.90
30765;BMP180;494;48.744;10.106;2022-09-09T12:29:12;95440.00;;;23.70
30765;BMP180;494;48.744;10.106;2022-09-09T12:31:48;94725.00;;;23.00
30765;BMP180;494;48.744;10.106;2022-09-09T12:34:32;95461.00;;;23.30
30765;BMP180;494;48.744;10.106;2022-09-09T12:37:15;95430.00;;;24.50
30765;BMP180;494;48.744;10.106;2022-09-09T12:39:52;95338.00;;;25.50
30765;BMP180;494;48.744;10.106;2022-09-09T12:42:25;95412.00;;;26.80
30765;BMP180;494;48.744;10.106;2022-09-09T12:44:56;95262.00;;;26.70
30765;BMP180;494;48.744;10.106;2022-09-09T12:47:36;95408.00;;;27.60
30765;BMP180;494;48.744;10.106;2022-09-09T12:50:18;95331.00;;;28.20
30765;BMP180;494;48.744;10.106;2022-09-09T12:52:50;95231.00;;;29.00
30765;BMP180;494;48.744;10.106;2022-09-09T12:55:25;95412.00;;;28.60
30765;BMP180;494;48.744;10.106;2022-09-09T12:57:59;95287.00;;;28.80
30765;BMP180;494;48.744;10.106;2022-09-09T13:00:33;95416.00;;;28.30
30765;BMP180;494;48.744;10.106;2022-09-09T13:03:16;95344.00;;;29.10
30765;BMP180;494;48.744;10.106;2022-09-09T13:05:45;95276.00;;;29.40
30765;BMP180;494;48.744;10.106;2022-09-09T13:08:16;95277.00;;;29.40
30765;BMP180;494;48.744;10.106;2022-09-09T13:10:51;95418.00;;;30.00
30765;BMP180;494;48.744;10.106;2022-09-09T13:13:35;95418.00;;;30.40
30765;BMP180;494;48.744;10.106;2022-09-09T13:16:06;95447.00;;;30.90
30765;BMP180;494;48.744;10.106;2022-09-09T13:18:44;95427.00;;;31.30
30765;BMP180;494;48.744;10.106;2022-09-09T13:21:13;95282.00;;;30.80
30765;BMP180;494;48.744;10.106;2022-09-09T13:23:48;95454.00;;;30.90
30765;BMP180;494;48.744;10.106;2022-09-09T13:26:23;95428.00;;;31.30
30765;BMP180;494;48.744;10.106;2022-09-09T13:28:55;95437.00;;;30.70
30765;BMP180;494;48.744;10.106;2022-09-09T13:31:37;94869.00;;;30.60
30765;BMP180;494;48.744;10.106;2022-09-09T13:34:12;95088.00;;;30.60
30765;BMP180;494;48.744;10.106;2022-09-09T13:36:46;95221.00;;;30.80
30765;BMP180;494;48.744;10.106;2022-09-09T13:39:17;95425.00;;;31.30
30765;BMP180;494;48.744;10.106;2022-09-09T13:41:47;95477.00;;;31.70
30765;BMP180;494;48.744;10.106;2022-09-09T13:44:23;95307.00;;;32.20
30765;BMP180;494;48.744;10.106;2022-09-09T13:47:05;95424.00;;;33.10
30765;BMP180;494;48.744;10.106;2022-09-09T13:49:37;95417.00;;;32.10
30765;BMP180;494;48.744;10.106;2022-09-09T13:52:11;95416.00;;;31.60
30765;BMP180;494;48.744;10.106;2022-09-09T13:54:41;95303.00;;;31.40
30765;BMP180;494;48.744;10.106;2022-09-09T13:57:16;95007.00;;;29.60
30765;BMP180;494;48.744;10.106;2022-09-09T13:59:47;95336.00;;;28.60
30765;BMP180;494;48.744;10.106;2022-09-09T14:02:33;95189.00;;;27.40
30765;BMP180;494;48.744;10.106;2022-09-09T14:05:03;95414.00;;;26.90
30765;BMP180;494;48.744;10.106;2022-09-09T14:07:33;95417.00;;;27.60
30765;BMP180;494;48.744;10.106;2022-09-09T14:10:02;95327.00;;;27.10
30765;BMP180;494;48.744;10.106;2022-09-09T14:12:30;95398.00;;;26.90
30765;BMP180;494;48.744;10.106;2022-09-09T14:15:00;95393.00;;;28.10
30765;BMP180;494;48.744;10.106;2022-09-09T14:17:29;95394.00;;;30.10
30765;BMP180;494;48.744;10.106;2022-09-09T14:20:01;94890.00;;;31.80
30765;BMP180;494;48.744;10.106;2022-09-09T14:22:31;95397.00;;;33.00
30765;BMP180;494;48.744;10.106;2022-09-09T14:25:00;95296.00;;;33.00
30765;BMP180;494;48.744;10.106;2022-09-09T14:27:29;95123.00;;;33.70
30765;BMP180;494;48.744;10.106;2022-09-09T14:29:57;95434.00;;;34.20
30765;BMP180;494;48.744;10.106;2022-09-09T14:32:28;95413.00;;;35.00
30765;BMP180;494;48.744;10.106;2022-09-09T14:34:57;95414.00;;;34.70
30765;BMP180;494;48.744;10.106;2022-09-09T14:37:27;95440.00;;;35.70
30765;BMP180;494;48.744;10.106;2022-09-09T14:39:58;95414.00;;;35.60
30765;BMP180;494;48.744;10.106;2022-09-09T14:42:26;95284.00;;;36.00
30765;BMP180;494;48.744;10.106;2022-09-09T14:44:57;95405.00;;;36.30
30765;BMP180;494;48.744;10.106;2022-09-09T14:47:25;95404.00;;;35.70
30765;BMP180;494;48.744;10.106;2022-09-09T14:49:55;95403.00;;;35.80
30765;BMP180;494;48.744;10.106;2022-09-09T14:52:24;95405.00;;;36.30
30765;BMP180;494;48.744;10.106;2022-09-09T14:54:52;95415.00;;;36.40
30765;BMP180;494;48.744;10.106;2022-09-09T14:57:21;95276.00;;;36.10
30765;BMP180;494;48.744;10.106;2022-09-09T14:59:49;95421.00;;;35.70
30765;BMP180;494;48.744;10.106;2022-09-09T15:02:18;95425.00;;;35.20
30765;BMP180;494;48.744;10.106;2022-09-09T15:04:47;95379.00;;;33.90
30765;BMP180;494;48.744;10.106;2022-09-09T15:07:18;95426.00;;;35.00
30765;BMP180;494;48.744;10.106;2022-09-09T15:09:47;95430.00;;;34.20
30765;BMP180;494;48.744;10.106;2022-09-09T15:12:16;95432.00;;;31.80